createdAt,value
2019-06-10T06:27:36.349Z,96.30
2019-06-10T06:30:11.050Z,94.00
2019-06-10T06:40:07.413Z,71.40
2019-06-10T06:42:38.241Z,70.40
2019-06-10T06:45:08.607Z,69.30
2019-06-10T06:47:39.125Z,67.80
2019-06-10T06:50:09.204Z,65.80
2019-06-10T06:53:12.221Z,61.90
2019-06-10T06:55:12.789Z,61.90
2019-06-10T06:57:43.291Z,61.70
2019-06-10T07:00:37.231Z,66.40
2019-06-10T07:02:44.827Z,69.10
2019-06-10T07:05:14.664Z,73.70
2019-06-10T07:07:44.001Z,73.20
2019-06-10T07:10:13.683Z,75.10
2019-06-10T07:12:44.505Z,78.10
2019-06-10T07:15:14.254Z,79.90
2019-06-10T07:17:45.582Z,80.30
2019-06-10T07:20:15.001Z,80.90
2019-06-10T07:22:46.645Z,81.60
2019-06-10T07:25:14.995Z,83.10
2019-06-10T07:27:46.781Z,81.90
2019-06-10T07:30:15.384Z,83.20
2019-06-10T07:32:47.263Z,80.50
2019-06-10T07:35:15.611Z,83.00
2019-06-10T07:37:46.035Z,78.00
2019-06-10T07:40:15.572Z,74.10
2019-06-10T07:42:45.475Z,69.60
2019-06-10T07:45:14.811Z,68.80
2019-06-10T07:47:45.629Z,67.40
2019-06-10T07:50:16.035Z,68.80
2019-06-10T07:52:46.812Z,66.70
2019-06-10T07:55:18.984Z,67.90
2019-06-10T07:57:48.261Z,66.80
2019-06-10T08:00:17.947Z,67.00
2019-06-10T08:02:47.193Z,68.20
2019-06-10T08:05:16.816Z,67.00
2019-06-10T08:07:48.830Z,69.70
2019-06-10T08:30:22.981Z,49.30
2019-06-10T08:32:53.184Z,49.20
2019-06-10T08:40:38.340Z,46.50
2019-06-10T08:43:07.895Z,48.50
2019-06-10T08:50:55.299Z,51.20
2019-06-10T08:53:24.887Z,49.00
2019-06-10T08:56:18.949Z,48.70
2019-06-10T08:58:50.480Z,48.50
2019-06-10T09:01:33.452Z,48.70
2019-06-10T10:24:55.266Z,86.40
2019-06-10T10:27:23.424Z,86.90
2019-06-10T10:29:57.001Z,89.50
2019-06-10T10:32:23.495Z,88.40
2019-06-10T10:34:56.424Z,90.50
2019-06-10T10:37:23.715Z,91.00
2019-06-10T10:39:56.045Z,90.20
2019-06-10T10:42:23.831Z,90.00
2019-06-10T10:44:58.787Z,90.80
2019-06-10T10:47:27.458Z,90.70
2019-06-10T10:49:57.104Z,90.20
2019-06-10T10:52:26.558Z,86.00
2019-06-10T10:54:55.849Z,86.50
2019-06-10T10:57:24.986Z,84.20
2019-06-10T10:59:56.131Z,84.80
2019-06-10T11:04:56.899Z,83.10
2019-06-10T11:07:24.624Z,85.50
2019-06-10T11:09:56.641Z,87.00
2019-06-10T11:12:26.911Z,88.80
2019-06-10T11:15:01.414Z,90.10
2019-06-10T11:17:30.427Z,89.30
2019-06-10T11:20:00.142Z,90.20
2019-06-10T11:22:43.383Z,90.30
2019-06-10T11:25:12.655Z,91.70
2019-06-10T11:27:43.129Z,90.70
2019-06-10T11:30:15.991Z,91.80
2019-06-10T11:32:46.098Z,90.70
2019-06-10T11:35:15.691Z,91.10
2019-06-10T11:37:44.903Z,91.60
2019-06-10T11:40:15.109Z,92.20
2019-06-10T11:42:44.417Z,91.90
2019-06-10T11:45:14.944Z,91.70
2019-06-10T11:58:27.853Z,89.00
2019-06-10T12:00:58.851Z,89.80
2019-06-10T12:10:59.060Z,85.30
2019-06-10T12:13:26.462Z,88.10
2019-06-10T12:18:26.821Z,88.40
2019-06-10T12:20:59.677Z,88.80
2019-06-10T12:23:27.941Z,90.10
2019-06-10T12:25:59.279Z,90.30
2019-06-10T12:28:28.047Z,88.80
2019-06-10T12:31:01.152Z,88.30
2019-06-10T12:33:28.419Z,89.90
2019-06-10T12:36:00.310Z,90.50
2019-06-10T12:38:28.377Z,91.50
2019-06-10T12:41:13.962Z,91.00
2019-06-10T12:43:43.296Z,91.20
2019-06-10T12:46:57.580Z,92.10
2019-06-10T12:52:07.567Z,89.80
2019-06-10T12:58:03.008Z,90.40
2019-06-10T13:00:35.377Z,91.30
2019-06-10T13:05:53.516Z,89.70
2019-06-10T13:08:23.975Z,87.80
2019-06-10T13:10:55.637Z,88.40
2019-06-10T13:13:25.361Z,88.50
2019-06-10T13:15:58.038Z,91.20
2019-06-10T13:18:27.498Z,89.80
2019-06-10T13:21:00.388Z,89.20
2019-06-10T13:23:31.873Z,90.20
2019-06-10T13:26:02.846Z,91.90
2019-06-10T13:28:29.459Z,92.70
2019-06-10T13:30:59.113Z,93.70
2019-06-10T13:33:28.749Z,94.40
2019-06-10T13:58:23.720Z,86.90
2019-06-10T14:00:53.728Z,86.30
2019-06-10T14:03:23.113Z,86.50
2019-06-10T14:05:58.466Z,83.70
2019-06-10T14:08:24.314Z,85.90
2019-06-10T14:10:55.118Z,83.80
2019-06-10T14:13:24.847Z,79.20
2019-06-10T14:15:54.587Z,79.60
2019-06-10T14:18:23.962Z,79.60
2019-06-10T14:20:53.570Z,80.90
2019-06-10T14:23:42.742Z,81.10
2019-06-10T14:26:39.883Z,80.30
2019-06-10T14:29:02.463Z,82.00
2019-06-10T14:31:42.881Z,80.50
2019-06-10T14:34:04.290Z,80.00
2019-06-10T14:36:33.899Z,77.90
2019-06-10T14:39:04.050Z,78.70
2019-06-10T14:41:33.281Z,77.70
2019-06-10T14:44:02.577Z,85.20
2019-06-10T14:46:32.983Z,91.10
2019-06-10T14:49:04.616Z,91.80
2019-06-10T14:51:34.155Z,93.40
2019-06-10T14:54:03.554Z,94.90
2019-06-10T14:56:33.280Z,95.90
2019-06-10T14:59:02.612Z,95.30
2019-06-10T15:01:32.213Z,93.20
2019-06-10T15:04:02.934Z,92.60
2019-06-10T15:06:33.875Z,92.00
2019-06-10T15:09:03.683Z,92.10
2019-06-10T15:11:33.060Z,92.00
2019-06-10T15:14:02.901Z,92.80
2019-06-10T15:16:33.605Z,93.20
2019-06-10T15:19:14.643Z,93.90
2019-06-10T15:21:35.336Z,94.30
2019-06-10T15:24:04.524Z,95.90
2019-06-10T15:26:33.901Z,96.90
2019-06-10T15:59:03.121Z,99.90
2019-06-10T16:01:32.736Z,99.90
2019-06-10T16:06:32.914Z,99.90
2019-06-10T16:09:02.974Z,99.90
